Time;durP1;ratioP1;P1;durP2;ratioP2;P2;SDS_P1;SDS_P2;PMS_P1;PMS_P2;Temp;Humidity;BMP_temperature;BMP_pressure;BME280_temperature;BME280_humidity;BME280_pressure;Samples;Min_cycle;Max_cycle;Signal;HPM_P1;HPM_P2
2022/06/19 00:02:00;;;;;;;9.73;3.60;;;;;;;30.00;41.77;98922.75;4141835;28;20233;-70
2022/06/19 00:04:04;;;;;;;14.35;4.68;;;;;;;29.69;42.12;98914.38;4140925;28;20279;-70
2022/06/19 00:06:07;;;;;;;13.30;3.88;;;;;;;29.94;41.50;98917.69;4140216;28;20713;-71
2022/06/19 00:08:08;;;;;;;11.30;4.57;;;;;;;30.80;40.86;98916.75;4143264;28;20280;-70
2022/06/19 00:10:11;;;;;;;9.88;3.88;;;;;;;30.74;40.74;98918.03;4142701;28;20287;-70
2022/06/19 00:12:14;;;;;;;12.40;4.15;;;;;;;30.75;40.53;98908.66;4144755;28;20237;-70
2022/06/19 00:14:16;;;;;;;12.70;4.15;;;;;;;31.02;39.81;98909.59;4144212;28;20244;-72
2022/06/19 00:16:18;;;;;;;10.57;4.07;;;;;;;31.17;39.19;98906.41;4144362;28;20262;-73
2022/06/19 00:18:20;;;;;;;16.45;4.47;;;;;;;30.92;39.68;98911.50;4144903;28;20828;-71
2022/06/19 00:20:21;;;;;;;9.45;3.95;;;;;;;30.88;40.27;98898.72;4147435;28;20724;-71
2022/06/19 00:22:23;;;;;;;15.95;4.65;;;;;;;30.97;39.90;98898.75;4146612;28;20287;-70
2022/06/19 00:24:25;;;;;;;12.43;4.18;;;;;;;30.34;40.67;98904.97;4144398;28;20338;-70
2022/06/19 00:26:27;;;;;;;19.00;5.05;;;;;;;30.47;40.39;98895.06;4143327;28;20249;-70
2022/06/19 00:28:29;;;;;;;13.27;4.55;;;;;;;30.51;40.46;98887.84;4145339;28;20249;-70
2022/06/19 00:30:31;;;;;;;14.40;4.13;;;;;;;30.40;40.56;98886.47;4144878;28;20295;-71
2022/06/19 00:32:33;;;;;;;11.95;4.22;;;;;;;30.59;40.31;98883.53;4143939;28;20237;-71
2022/06/19 00:34:36;;;;;;;10.98;3.97;;;;;;;30.73;40.03;98876.03;4143969;28;20295;-72
2022/06/19 00:36:38;;;;;;;14.98;4.93;;;;;;;30.63;39.98;98884.50;4136866;28;20261;-72
2022/06/19 00:38:40;;;;;;;13.85;4.45;;;;;;;30.41;40.62;98876.31;4144292;28;20297;-71
2022/06/19 00:40:41;;;;;;;11.85;4.68;;;;;;;30.29;41.02;98874.94;4144421;28;20230;-73
2022/06/19 00:42:43;;;;;;;11.98;4.90;;;;;;;30.41;40.95;98873.59;4144436;28;20291;-71
2022/06/19 00:44:46;;;;;;;16.50;4.85;;;;;;;30.24;41.06;98871.53;4142562;28;20264;-72
2022/06/19 00:46:50;;;;;;;13.20;4.78;;;;;;;30.10;41.14;98879.81;4144685;28;20241;-70
2022/06/19 00:48:52;;;;;;;15.02;4.53;;;;;;;30.08;41.42;98874.63;4145028;28;20228;-70
2022/06/19 00:50:54;;;;;;;15.50;4.53;;;;;;;29.87;41.61;98873.47;4147175;28;20846;-70
2022/06/19 00:52:57;;;;;;;14.27;4.50;;;;;;;29.61;41.93;98865.81;4160110;28;20236;-71
2022/06/19 00:55:28;;;;;;;12.82;5.03;;;;;;;29.79;41.76;98864.88;4160024;28;20236;-70
2022/06/19 00:57:33;;;;;;;15.13;4.57;;;;;;;29.91;41.39;98858.84;4161488;28;20254;-71
2022/06/19 00:59:38;;;;;;;13.27;5.07;;;;;;;29.67;41.59;98872.78;4161264;28;20228;-70
2022/06/19 01:01:41;;;;;;;13.90;4.43;;;;;;;29.75;41.46;98863.06;4160203;28;20762;-72
2022/06/19 01:03:59;;;;;;;18.85;5.22;;;;;;;29.73;41.53;98860.63;4160615;28;21035;-71
2022/06/19 01:06:01;;;;;;;15.75;4.63;;;;;;;29.97;40.83;98863.06;4159925;28;20233;-71
2022/06/19 01:08:04;;;;;;;16.75;4.57;;;;;;;30.10;40.90;98849.66;4160114;28;20233;-71
2022/06/19 01:10:06;;;;;;;11.98;5.18;;;;;;;29.88;40.74;98869.59;4162770;28;20236;-67
2022/06/19 01:12:08;;;;;;;13.20;5.43;;;;;;;29.67;41.44;98872.78;4160304;28;20649;-68
2022/06/19 01:14:14;;;;;;;16.10;4.40;;;;;;;29.82;41.36;98866.97;4159739;28;20794;-68
2022/06/19 01:16:16;;;;;;;16.58;4.68;;;;;;;29.57;41.56;98867.53;4160620;28;20756;-67
2022/06/19 01:18:20;;;;;;;11.77;4.82;;;;;;;29.86;41.15;98856.25;4159891;28;20247;-67
2022/06/19 01:20:23;;;;;;;9.90;4.13;;;;;;;28.81;43.09;98866.00;4160758;28;20228;-68
2022/06/19 01:22:36;;;;;;;10.60;4.15;;;;;;;28.86;43.77;98837.75;4160641;28;20232;-67
2022/06/19 01:24:44;;;;;;;11.82;4.80;;;;;;;29.47;42.27;98844.75;4150469;28;20236;-68
2022/06/19 01:26:49;;;;;;;15.23;4.32;;;;;;;29.21;42.85;98849.13;4159732;28;20239;-68
2022/06/19 01:28:55;;;;;;;12.60;3.58;;;;;;;28.84;43.18;98854.47;4160613;28;20248;-67
2022/06/19 01:30:59;;;;;;;13.45;4.00;;;;;;;29.57;41.88;98851.91;4159283;28;20233;-68
2022/06/19 01:33:03;;;;;;;11.98;4.55;;;;;;;29.29;42.75;98854.69;4160190;28;20324;-67
2022/06/19 01:35:08;;;;;;;12.80;4.22;;;;;;;28.22;44.62;98857.44;4158839;28;20282;-67
2022/06/19 01:37:21;;;;;;;11.93;4.60;;;;;;;28.37;44.43;98839.97;4159769;28;20224;-67
2022/06/19 01:39:24;;;;;;;16.13;5.30;;;;;;;28.64;44.01;98830.22;4160463;28;20240;-68
2022/06/19 01:41:32;;;;;;;13.98;4.55;;;;;;;29.45;42.55;98852.44;4159370;28;20221;-68
2022/06/19 01:43:35;;;;;;;15.25;4.75;;;;;;;28.68;43.82;98856.69;4159185;28;20228;-68
2022/06/19 01:45:41;;;;;;;13.95;4.28;;;;;;;28.64;43.74;98846.63;4159152;28;20236;-68
2022/06/19 01:47:43;;;;;;;13.63;4.78;;;;;;;28.22;44.81;98843.78;4158421;28;20247;-68
2022/06/19 01:49:48;;;;;;;13.35;4.35;;;;;;;28.10;44.95;98835.22;4159916;28;20244;-68
2022/06/19 01:51:52;;;;;;;10.80;4.35;;;;;;;27.91;44.78;98827.84;4165435;28;20290;-67
2022/06/19 01:54:06;;;;;;;13.73;4.70;;;;;;;27.93;44.88;98814.72;4157479;28;20361;-68
2022/06/19 01:56:10;;;;;;;13.05;5.07;;;;;;;28.22;44.56;98810.19;4158886;28;20236;-68
2022/06/19 01:58:12;;;;;;;15.25;4.68;;;;;;;28.54;43.56;98817.53;4159835;28;20294;-68
2022/06/19 02:00:21;;;;;;;12.80;4.43;;;;;;;28.31;43.84;98833.81;4159412;28;20232;-68
2022/06/19 02:02:23;;;;;;;14.30;4.72;;;;;;;28.73;43.74;98831.16;4158141;28;20243;-68
2022/06/19 02:04:25;;;;;;;13.23;4.60;;;;;;;28.56;43.59;98848.09;4157997;28;20393;-67
2022/06/19 02:06:31;;;;;;;11.60;4.32;;;;;;;28.14;44.84;98838.97;4159140;28;20232;-67
2022/06/19 02:08:34;;;;;;;17.77;4.75;;;;;;;27.76;45.60;98822.63;4143102;28;20229;-68
2022/06/19 02:10:40;;;;;;;11.95;4.13;;;;;;;27.86;45.22;98825.19;4142353;28;20279;-68
2022/06/19 02:12:42;;;;;;;14.70;4.82;;;;;;;28.23;44.22;98818.09;4136816;28;20233;-71
2022/06/19 02:14:44;;;;;;;12.30;4.72;;;;;;;28.33;44.27;98828.84;4158734;28;20256;-67
2022/06/19 02:16:48;;;;;;;11.98;4.90;;;;;;;27.56;45.99;98835.44;4159484;28;20224;-69
2022/06/19 02:18:52;;;;;;;11.60;4.10;;;;;;;28.02;44.63;98820.28;4159923;28;20237;-68
2022/06/19 02:20:54;;;;;;;15.20;5.00;;;;;;;28.11;43.80;98826.72;4159366;28;20619;-67
2022/06/19 02:22:57;;;;;;;16.73;4.32;;;;;;;28.87;42.82;98826.50;4158607;28;20305;-68
2022/06/19 02:24:59;;;;;;;12.80;3.90;;;;;;;28.62;43.37;98833.25;4158264;28;20234;-67
2022/06/19 02:27:01;;;;;;;10.65;3.88;;;;;;;28.41;42.84;98835.56;4159714;28;20250;-68
2022/06/19 02:29:06;;;;;;;14.35;4.13;;;;;;;27.45;43.67;98837.50;4159393;28;20286;-68
2022/06/19 02:31:08;;;;;;;10.80;4.47;;;;;;;26.51;44.95;98822.47;4159431;28;20232;-68
2022/06/19 02:33:14;;;;;;;17.63;4.40;;;;;;;26.25;46.87;98788.34;4158002;28;20266;-67
2022/06/19 02:35:24;;;;;;;12.25;4.40;;;;;;;26.96;45.99;98791.44;4157961;28;20224;-68
2022/06/19 02:37:30;;;;;;;13.07;4.22;;;;;;;27.30;45.09;98790.47;4158224;28;20224;-67
2022/06/19 02:39:40;;;;;;;10.60;4.35;;;;;;;27.81;44.50;98785.13;4158770;28;20233;-68
2022/06/19 02:41:56;;;;;;;9.48;3.58;;;;;;;27.80;44.35;98810.81;4159068;28;20290;-68
2022/06/19 02:44:00;;;;;;;15.07;4.63;;;;;;;28.40;43.20;98822.19;4158861;28;20248;-68
2022/06/19 02:46:06;;;;;;;12.27;4.63;;;;;;;28.18;44.22;98815.44;4158158;28;20232;-68
2022/06/19 02:48:20;;;;;;;12.77;4.40;;;;;;;28.40;43.75;98809.31;4159459;28;20375;-68
2022/06/19 02:50:27;;;;;;;17.13;4.80;;;;;;;28.73;42.32;98817.47;4157212;28;20323;-67
2022/06/19 02:52:28;;;;;;;10.65;3.42;;;;;;;28.49;42.88;98818.44;4158574;28;20228;-68
2022/06/19 02:54:31;;;;;;;19.38;4.25;;;;;;;28.64;42.36;98820.06;4158908;28;20290;-68
2022/06/19 02:56:32;;;;;;;10.45;4.20;;;;;;;28.29;42.42;98816.06;4147014;28;20234;-67
2022/06/19 02:58:34;;;;;;;13.38;4.18;;;;;;;28.31;43.23;98819.31;4158876;28;20763;-68
2022/06/19 03:00:37;;;;;;;10.98;3.95;;;;;;;28.47;42.58;98815.19;4158114;28;20237;-68
2022/06/19 03:02:39;;;;;;;9.88;3.90;;;;;;;28.37;42.96;98816.19;4158057;28;20241;-70
2022/06/19 03:04:48;;;;;;;13.70;3.90;;;;;;;28.32;42.82;98813.53;4157507;28;20236;-70
2022/06/19 03:06:51;;;;;;;15.73;3.80;;;;;;;28.42;42.47;98819.94;4159556;28;20697;-71
2022/06/19 03:08:52;;;;;;;16.33;4.38;;;;;;;27.87;42.92;98828.75;4159261;28;20767;-71
2022/06/19 03:10:54;;;;;;;14.20;4.80;;;;;;;26.59;44.73;98814.75;4161186;28;20236;-73
2022/06/19 03:12:58;;;;;;;12.35;3.97;;;;;;;28.40;42.36;98806.56;4160066;28;20243;-71
2022/06/19 03:15:00;;;;;;;15.23;4.55;;;;;;;28.61;42.71;98809.72;4157657;28;20229;-72
2022/06/19 03:17:02;;;;;;;11.20;4.03;;;;;;;28.08;43.56;98805.44;4159392;28;20228;-70
2022/06/19 03:19:04;;;;;;;12.02;4.15;;;;;;;27.33;44.62;98801.66;4158263;28;20779;-70
2022/06/19 03:21:06;;;;;;;16.33;4.13;;;;;;;27.45;44.81;98799.28;4157817;28;20311;-68
2022/06/19 03:23:07;;;;;;;15.48;4.22;;;;;;;28.11;43.80;98782.19;4158906;28;20658;-68
2022/06/19 03:25:10;;;;;;;12.68;4.00;;;;;;;26.94;45.37;98791.72;4158178;28;20224;-68
2022/06/19 03:27:12;;;;;;;11.38;3.88;;;;;;;27.51;45.13;98774.63;4158693;28;20282;-68
2022/06/19 03:29:14;;;;;;;14.25;4.15;;;;;;;27.53;44.39;98781.41;4159392;28;20282;-68
2022/06/19 03:31:22;;;;;;;12.25;4.72;;;;;;;27.05;45.12;98776.84;4158304;28;20312;-68
2022/06/19 03:33:24;;;;;;;12.35;3.97;;;;;;;26.92;44.86;98782.22;4158620;28;20311;-68
2022/06/19 03:35:26;;;;;;;14.10;4.57;;;;;;;26.59;45.58;98765.69;4158774;28;20221;-68
2022/06/19 03:37:27;;;;;;;15.10;4.15;;;;;;;27.19;44.05;98771.53;4158163;28;20233;-67
2022/06/19 03:39:29;;;;;;;19.42;5.22;;;;;;;25.95;46.11;98782.09;4159440;28;20282;-68
2022/06/19 03:41:31;;;;;;;13.23;3.90;;;;;;;26.15;45.26;98765.56;4158952;28;20220;-68
2022/06/19 03:43:35;;;;;;;19.50;4.30;;;;;;;27.38;43.38;98762.53;4157660;28;20887;-67
2022/06/19 03:45:37;;;;;;;13.05;4.30;;;;;;;26.36;45.44;98776.25;4160342;28;20324;-67
2022/06/19 03:47:39;;;;;;;15.52;4.95;;;;;;;27.03;45.08;98778.28;4161818;28;20236;-67
2022/06/19 03:49:41;;;;;;;15.23;4.53;;;;;;;28.34;42.57;98784.00;4161526;28;20229;-70
2022/06/19 03:51:43;;;;;;;10.10;4.10;;;;;;;28.50;41.88;98795.44;4162014;28;20655;-69
2022/06/19 03:53:45;;;;;;;13.07;4.10;;;;;;;28.03;42.93;98786.41;4161533;28;20241;-67
2022/06/19 03:55:48;;;;;;;16.33;4.70;;;;;;;28.62;41.14;98805.91;4161369;28;20671;-68
2022/06/19 03:57:50;;;;;;;20.55;4.75;;;;;;;28.48;41.39;98805.09;4162637;28;20314;-67
2022/06/19 03:59:51;;;;;;;17.77;4.45;;;;;;;29.04;40.77;98814.94;4162495;28;20759;-68
2022/06/19 04:01:53;;;;;;;15.27;4.50;;;;;;;29.02;40.75;98817.19;4174692;28;20224;-68
2022/06/19 04:03:56;;;;;;;13.05;4.50;;;;;;;28.78;40.70;98820.13;4160830;28;20852;-69
2022/06/19 04:05:58;;;;;;;16.55;4.47;;;;;;;28.69;40.69;98813.72;4160270;28;20657;-67
2022/06/19 04:08:00;;;;;;;14.55;4.82;;;;;;;28.07;41.92;98795.63;4156506;28;20233;-69
2022/06/19 04:10:02;;;;;;;16.15;4.28;;;;;;;28.31;41.29;98792.78;4161955;28;20228;-69
2022/06/19 04:12:05;;;;;;;17.25;4.93;;;;;;;28.51;41.20;98801.72;4160349;28;20232;-68
2022/06/19 04:14:07;;;;;;;15.25;4.82;;;;;;;28.32;41.53;98810.81;4161751;28;20233;-69
2022/06/19 04:16:15;;;;;;;20.92;4.85;;;;;;;28.36;41.14;98816.50;4161346;28;20823;-69
2022/06/19 04:18:17;;;;;;;14.77;4.85;;;;;;;28.49;40.69;98812.97;4160716;28;20326;-68
2022/06/19 04:20:18;;;;;;;21.73;4.70;;;;;;;28.04;42.01;98807.19;4161175;28;20236;-73
2022/06/19 04:22:20;;;;;;;11.40;4.78;;;;;;;28.05;41.95;98797.03;4161744;28;20639;-71
2022/06/19 04:24:22;;;;;;;17.48;4.20;;;;;;;28.28;42.03;98787.13;4160774;28;20286;-70
2022/06/19 04:26:26;;;;;;;14.82;4.35;;;;;;;28.57;41.53;98789.59;4160251;28;20281;-71
2022/06/19 04:28:28;;;;;;;14.00;4.18;;;;;;;28.55;41.43;98797.28;4161458;28;20233;-71
2022/06/19 04:30:30;;;;;;;18.48;4.40;;;;;;;28.63;41.23;98796.59;4161140;28;20286;-71
2022/06/19 04:32:32;;;;;;;22.48;5.22;;;;;;;28.15;42.33;98791.44;4159183;28;20327;-69
2022/06/19 04:34:33;;;;;;;18.00;4.93;;;;;;;28.21;41.90;98795.72;4159465;28;20793;-68
2022/06/19 04:36:35;;;;;;;20.35;4.63;;;;;;;28.26;41.99;98795.63;4160910;28;20234;-72
2022/06/19 04:38:38;;;;;;;17.05;4.50;;;;;;;28.23;42.01;98788.03;4161696;28;20888;-72
2022/06/19 04:40:40;;;;;;;15.80;4.60;;;;;;;28.33;41.77;98785.09;4159987;28;20305;-71
2022/06/19 04:42:42;;;;;;;15.85;4.65;;;;;;;28.86;41.48;98796.72;4160934;28;20295;-71
2022/06/19 04:44:43;;;;;;;17.25;4.38;;;;;;;29.03;40.84;98794.16;4160673;28;20229;-70
2022/06/19 04:46:46;;;;;;;14.30;4.38;;;;;;;29.21;40.45;98805.34;4161619;28;20236;-71
2022/06/19 04:48:49;;;;;;;18.25;5.00;;;;;;;29.13;40.92;98806.81;4160765;28;20241;-72
2022/06/19 04:50:52;;;;;;;14.23;4.25;;;;;;;28.73;41.76;98804.63;4160934;28;20240;-73
2022/06/19 04:52:54;;;;;;;15.73;4.85;;;;;;;29.02;41.05;98806.25;4158843;28;20232;-73
2022/06/19 04:54:55;;;;;;;14.77;3.92;;;;;;;29.21;40.78;98808.88;4160213;28;20290;-71
2022/06/19 04:56:57;;;;;;;19.10;4.78;;;;;;;29.00;41.08;98818.59;4160600;28;20729;-72
2022/06/19 04:58:59;;;;;;;13.82;4.32;;;;;;;29.30;40.44;98806.22;4160798;28;20298;-70
2022/06/19 05:01:03;;;;;;;13.75;4.50;;;;;;;29.39;40.54;98815.34;4160900;28;20294;-68
2022/06/19 05:03:05;;;;;;;17.50;4.85;;;;;;;28.92;40.75;98811.91;4159843;28;20237;-67
2022/06/19 05:05:09;;;;;;;12.13;4.28;;;;;;;28.72;41.21;98805.72;4159359;28;20232;-68
2022/06/19 05:07:11;;;;;;;14.77;4.03;;;;;;;28.61;40.79;98803.47;4160577;28;20220;-69
2022/06/19 05:09:13;;;;;;;13.68;4.78;;;;;;;27.12;43.42;98790.19;4165586;28;20240;-69
2022/06/19 05:11:16;;;;;;;16.83;4.22;;;;;;;28.27;41.97;98780.03;4160298;28;20323;-69
2022/06/19 05:13:20;;;;;;;12.15;4.60;;;;;;;27.19;43.28;98778.91;4160730;28;20263;-71
2022/06/19 05:15:23;;;;;;;21.92;4.60;;;;;;;27.21;44.16;98773.97;4158949;28;20711;-69
2022/06/19 05:17:24;;;;;;;15.30;4.05;;;;;;;27.63;43.20;98775.03;4160113;28;20255;-68
2022/06/19 05:19:26;;;;;;;16.10;5.25;;;;;;;27.90;42.41;98755.19;4160239;28;20228;-68
2022/06/19 05:21:28;;;;;;;14.40;4.30;;;;;;;28.11;42.59;98765.81;4159361;28;20236;-69
2022/06/19 05:23:35;;;;;;;10.85;3.78;;;;;;;27.43;42.77;98776.09;4159447;28;20232;-69
2022/06/19 05:25:37;;;;;;;18.35;4.50;;;;;;;27.77;43.00;98764.16;4160133;28;20225;-68
2022/06/19 05:27:40;;;;;;;10.90;4.20;;;;;;;27.86;42.97;98758.84;4159643;28;20291;-69
2022/06/19 05:29:43;;;;;;;11.40;3.60;;;;;;;28.35;41.52;98782.06;4160013;28;20311;-71
2022/06/19 05:31:45;;;;;;;18.70;4.45;;;;;;;28.11;42.45;98774.81;4159679;28;20303;-73
2022/06/19 05:33:47;;;;;;;13.50;3.30;;;;;;;27.76;42.19;98782.47;4158704;28;20263;-68
2022/06/19 05:35:48;;;;;;;12.70;4.57;;;;;;;28.23;41.99;98784.47;4159265;28;20240;-69
2022/06/19 05:37:50;;;;;;;14.80;4.40;;;;;;;28.43;41.90;98788.75;4160000;28;20248;-68
2022/06/19 05:39:52;;;;;;;17.23;4.10;;;;;;;27.66;42.91;98796.28;4160280;28;20291;-68
2022/06/19 05:41:57;;;;;;;12.15;4.22;;;;;;;28.80;41.19;98781.50;4160068;28;20239;-72
2022/06/19 05:43:59;;;;;;;17.45;4.15;;;;;;;28.17;42.29;98795.50;4159277;28;20244;-71
2022/06/19 05:46:04;;;;;;;16.33;4.20;;;;;;;28.28;42.35;98798.84;4159114;28;20229;-72
2022/06/19 05:48:05;;;;;;;18.15;4.30;;;;;;;28.76;41.33;98789.50;4160023;28;20248;-69
2022/06/19 05:50:08;;;;;;;13.57;4.65;;;;;;;28.64;41.37;98806.41;4159539;28;20764;-69
2022/06/19 05:52:24;;;;;;;14.98;4.70;;;;;;;29.06;41.28;98795.50;4159646;28;20262;-69
2022/06/19 05:54:27;;;;;;;11.85;3.70;;;;;;;29.27;40.73;98801.34;4160400;28;20604;-69
2022/06/19 05:56:29;;;;;;;16.85;4.35;;;;;;;28.75;41.82;98812.53;4158449;28;20614;-68
2022/06/19 05:58:32;;;;;;;15.52;4.20;;;;;;;29.48;41.12;98799.00;4159196;28;20232;-67
2022/06/19 06:00:33;;;;;;;16.55;4.38;;;;;;;29.39;40.77;98828.19;4160392;28;20667;-69
2022/06/19 06:02:36;;;;;;;23.35;4.35;;;;;;;28.76;41.33;98824.28;4158575;28;20224;-69
2022/06/19 06:04:42;;;;;;;18.63;4.13;;;;;;;29.60;40.52;98810.19;4150901;28;20240;-69
2022/06/19 06:06:44;;;;;;;14.80;4.25;;;;;;;29.79;40.37;98822.97;4158540;28;20729;-68
2022/06/19 06:08:46;;;;;;;17.25;4.15;;;;;;;29.57;40.57;98823.72;4159786;28;20786;-71
2022/06/19 06:10:49;;;;;;;13.98;4.00;;;;;;;29.80;40.91;98819.91;4159601;28;20232;-70
2022/06/19 06:12:51;;;;;;;16.63;4.53;;;;;;;29.74;40.74;98832.09;4158009;28;20250;-73
2022/06/19 06:14:53;;;;;;;13.38;4.20;;;;;;;30.41;39.43;98832.44;4159326;28;20712;-72
2022/06/19 06:16:54;;;;;;;16.38;4.07;;;;;;;30.63;39.13;98842.56;4159171;28;21143;-72
2022/06/19 06:18:56;;;;;;;16.13;4.30;;;;;;;30.83;39.43;98839.28;4159021;28;20290;-70
2022/06/19 06:21:00;;;;;;;15.40;4.70;;;;;;;30.53;40.58;98840.88;4158993;28;20232;-68
2022/06/19 06:23:02;;;;;;;15.73;4.47;;;;;;;30.44;40.01;98849.06;4159278;28;20239;-69
2022/06/19 06:25:05;;;;;;;19.02;4.80;;;;;;;30.28;40.40;98839.63;4158387;28;20595;-68
2022/06/19 06:27:07;;;;;;;17.27;3.63;;;;;;;30.24;41.16;98824.94;4159974;28;20232;-68
2022/06/19 06:29:09;;;;;;;13.60;4.10;;;;;;;30.65;40.29;98821.91;4159246;28;20236;-69
2022/06/19 06:31:11;;;;;;;13.95;3.92;;;;;;;29.34;42.34;98807.25;4158227;28;20232;-68
2022/06/19 06:33:13;;;;;;;17.05;4.05;;;;;;;29.47;42.03;98802.84;4159253;28;20232;-68
2022/06/19 06:35:15;;;;;;;15.25;4.18;;;;;;;29.72;41.45;98808.88;4158505;28;20283;-68
2022/06/19 06:37:16;;;;;;;12.40;4.80;;;;;;;29.23;42.16;98814.84;4159301;28;20449;-68
2022/06/19 06:39:20;;;;;;;13.00;4.18;;;;;;;30.04;40.87;98810.56;4159667;28;20228;-68
2022/06/19 06:41:21;;;;;;;13.27;3.90;;;;;;;30.45;40.42;98822.44;4158473;28;20228;-67
2022/06/19 06:43:24;;;;;;;13.60;4.00;;;;;;;30.38;40.57;98828.38;4159361;28;20627;-68
2022/06/19 06:45:26;;;;;;;16.38;4.53;;;;;;;30.30;40.51;98838.19;4158335;28;20220;-67
2022/06/19 06:47:27;;;;;;;15.70;5.38;;;;;;;30.47;40.84;98832.00;4158505;28;20274;-68
2022/06/19 06:49:29;;;;;;;14.13;4.30;;;;;;;29.35;42.14;98844.44;4159342;28;20232;-67
2022/06/19 06:51:31;;;;;;;12.95;4.40;;;;;;;30.49;40.77;98824.25;4159169;28;20286;-67
2022/06/19 06:53:33;;;;;;;14.20;4.68;;;;;;;30.36;40.84;98838.88;4158280;28;20290;-68
2022/06/19 06:55:43;;;;;;;14.52;4.22;;;;;;;30.79;39.53;98821.84;4158475;28;20233;-71
2022/06/19 06:57:45;;;;;;;13.02;3.92;;;;;;;30.82;40.09;98832.16;4159448;28;20239;-69
2022/06/19 06:59:47;;;;;;;13.25;4.22;;;;;;;29.40;41.67;98849.81;4158546;28;20241;-70
2022/06/19 07:01:48;;;;;;;14.82;4.80;;;;;;;30.44;40.56;98838.09;4158998;28;20775;-71
2022/06/19 07:03:54;;;;;;;15.02;5.45;;;;;;;30.45;40.43;98838.91;4159009;28;20248;-70
2022/06/19 07:05:57;;;;;;;20.23;5.55;;;;;;;30.28;40.91;98837.69;4162670;28;20241;-69
2022/06/19 07:07:59;;;;;;;12.20;4.72;;;;;;;30.56;40.51;98832.03;4154568;28;20293;-68
2022/06/19 07:10:01;;;;;;;16.40;5.20;;;;;;;30.81;40.20;98825.06;4159045;28;20236;-67
2022/06/19 07:12:03;;;;;;;13.50;5.30;;;;;;;30.27;40.38;98844.31;4158947;28;20286;-68
2022/06/19 07:14:05;;;;;;;14.68;5.53;;;;;;;30.16;41.23;98821.78;4159179;28;20900;-71
2022/06/19 07:16:07;;;;;;;16.40;4.43;;;;;;;30.81;39.90;98825.06;4158109;28;20233;-71
2022/06/19 07:18:08;;;;;;;14.98;4.88;;;;;;;30.84;40.66;98829.94;4159399;28;20233;-70
2022/06/19 07:20:11;;;;;;;14.05;5.50;;;;;;;30.57;40.16;98837.22;4162155;28;20298;-70
2022/06/19 07:22:14;;;;;;;16.67;4.85;;;;;;;29.25;41.62;98837.28;4161751;28;20764;-70
2022/06/19 07:24:16;;;;;;;10.60;5.43;;;;;;;30.42;40.67;98812.09;4161884;28;20236;-67
2022/06/19 07:26:20;;;;;;;12.18;5.32;;;;;;;30.50;40.77;98814.91;4162331;28;20225;-67
2022/06/19 07:28:22;;;;;;;12.27;4.90;;;;;;;30.56;40.15;98808.16;4161045;28;20286;-67
2022/06/19 07:30:25;;;;;;;16.00;4.95;;;;;;;29.91;41.18;98819.66;4162616;28;20282;-68
2022/06/19 07:32:27;;;;;;;13.00;4.72;;;;;;;30.61;40.60;98811.91;4162127;28;20228;-67
2022/06/19 07:34:29;;;;;;;10.57;4.97;;;;;;;29.99;40.52;98816.19;4160748;28;20865;-70
2022/06/19 07:36:34;;;;;;;15.10;5.57;;;;;;;30.49;40.33;98807.81;4151347;28;20228;-70
2022/06/19 07:38:35;;;;;;;14.57;5.47;;;;;;;30.77;39.89;98818.59;4161899;28;20224;-70
2022/06/19 07:40:37;;;;;;;18.00;5.47;;;;;;;30.35;40.11;98816.13;4161758;28;20240;-70
2022/06/19 07:42:42;;;;;;;16.25;6.07;;;;;;;30.90;39.64;98808.63;4161012;28;20237;-70
2022/06/19 07:44:43;;;;;;;14.27;5.57;;;;;;;30.69;39.60;98811.94;4159683;28;20283;-70
2022/06/19 07:51:25;;;;;;;15.80;5.30;;;;;;;31.44;38.73;98809.25;4160556;28;20313;-67
2022/06/19 07:53:32;;;;;;;14.18;5.95;;;;;;;31.31;39.12;98811.03;4161528;28;20315;-71
2022/06/19 07:55:35;;;;;;;16.20;6.07;;;;;;;31.62;39.23;98825.78;4161265;28;20229;-67
2022/06/19 07:57:37;;;;;;;14.48;5.72;;;;;;;31.83;38.52;98825.94;4161415;28;20659;-67
2022/06/19 07:59:39;;;;;;;14.77;5.13;;;;;;;30.88;39.88;98816.38;4162061;28;20237;-68
2022/06/19 08:01:40;;;;;;;15.00;4.88;;;;;;;30.82;39.87;98814.91;4161736;28;20278;-68
2022/06/19 08:04:02;;;;;;;14.43;6.07;;;;;;;31.16;40.05;98802.41;4159251;28;20728;-67
2022/06/19 08:06:04;;;;;;;13.45;5.65;;;;;;;30.86;39.70;98811.22;4160469;28;20291;-68
2022/06/19 08:08:18;;;;;;;13.85;5.13;;;;;;;31.52;39.10;98799.41;4160899;28;20225;-67
2022/06/19 08:10:23;;;;;;;14.00;5.65;;;;;;;31.49;38.72;98822.81;4161674;28;20236;-67
2022/06/19 08:12:25;;;;;;;15.30;5.18;;;;;;;31.06;39.49;98818.06;4161400;28;20278;-68
2022/06/19 08:14:27;;;;;;;15.25;6.53;;;;;;;31.62;38.90;98810.09;4161021;28;20224;-67
2022/06/19 08:16:28;;;;;;;12.73;5.25;;;;;;;31.63;38.75;98811.72;4161808;28;20229;-68
2022/06/19 08:18:32;;;;;;;17.23;5.32;;;;;;;31.51;39.33;98814.28;4161440;28;20298;-68
2022/06/19 08:20:34;;;;;;;15.68;5.00;;;;;;;31.86;38.48;98815.09;4160840;28;20228;-68
2022/06/19 08:22:37;;;;;;;9.82;4.88;;;;;;;32.07;38.22;98810.88;4161256;28;20306;-67
2022/06/19 08:24:39;;;;;;;11.00;5.00;;;;;;;32.10;38.09;98827.53;4159988;28;20311;-69
2022/06/19 08:26:41;;;;;;;11.85;5.05;;;;;;;32.08;38.17;98832.56;4152980;28;20236;-68
2022/06/19 08:30:47;;;;;;;16.90;5.97;;;;;;;32.68;38.03;98825.34;4160400;28;20237;-67
2022/06/19 08:32:49;;;;;;;14.52;5.50;;;;;;;32.17;38.13;98838.03;4160436;28;20651;-68
2022/06/19 08:34:51;;;;;;;14.18;5.10;;;;;;;32.20;38.16;98823.66;4160574;28;20235;-68
2022/06/19 08:36:54;;;;;;;10.52;4.65;;;;;;;32.15;38.54;98816.34;4160837;28;20241;-68
2022/06/19 08:38:59;;;;;;;13.35;5.28;;;;;;;32.14;37.94;98819.44;4160782;28;20853;-67
2022/06/19 08:41:00;;;;;;;14.45;5.45;;;;;;;32.49;37.51;98828.47;4161444;28;20282;-68
2022/06/19 08:43:02;;;;;;;9.55;4.78;;;;;;;32.14;37.36;98820.25;4160653;28;20310;-70
2022/06/19 08:45:28;;;;;;;9.20;4.80;;;;;;;32.51;36.97;98839.13;4160889;28;20353;-70
2022/06/19 08:47:47;;;;;;;8.05;4.68;;;;;;;32.15;37.60;98815.56;4160633;28;20225;-70
2022/06/19 08:50:07;;;;;;;12.68;6.10;;;;;;;32.70;37.61;98814.81;4160481;28;20290;-69
2022/06/19 08:52:25;;;;;;;9.70;5.15;;;;;;;32.42;37.43;98811.63;4156918;28;20236;-70
2022/06/19 08:54:40;;;;;;;11.07;5.13;;;;;;;32.48;37.80;98806.78;4159956;28;20262;-70
2022/06/19 08:57:19;;;;;;;8.95;5.00;;;;;;;32.45;37.61;98819.22;4153433;28;20232;-71
2022/06/19 08:59:21;;;;;;;13.13;5.90;;;;;;;32.44;37.60;98805.81;4161301;28;20233;-70
2022/06/19 09:01:37;;;;;;;13.82;4.78;;;;;;;33.43;36.62;98802.72;4161342;28;20279;-71
2022/06/19 09:06:20;;;;;;;11.82;4.68;;;;;;;33.42;36.61;98825.94;4159635;28;20358;-70
2022/06/19 09:08:55;;;;;;;9.30;5.82;;;;;;;32.91;37.00;98822.31;4160473;28;20651;-71
2022/06/19 09:11:24;;;;;;;8.98;4.90;;;;;;;32.59;37.11;98828.09;4160655;28;20228;-71
2022/06/19 09:13:57;;;;;;;11.60;5.10;;;;;;;33.21;36.94;98808.56;4160238;28;20241;-69
2022/06/19 09:16:03;;;;;;;10.70;5.32;;;;;;;33.64;36.17;98805.53;4154360;28;20233;-70
2022/06/19 09:18:12;;;;;;;15.35;5.35;;;;;;;32.94;37.18;98800.44;4160528;28;20236;-68
2022/06/19 09:20:37;;;;;;;12.07;4.65;;;;;;;32.77;37.00;98806.03;4160930;28;20232;-68
2022/06/19 09:22:49;;;;;;;9.95;4.60;;;;;;;33.28;36.68;98797.81;4144451;28;20597;-67
2022/06/19 09:25:14;;;;;;;6.88;4.65;;;;;;;33.31;36.23;98808.97;4159372;28;20313;-68
2022/06/19 09:27:18;;;;;;;9.77;5.15;;;;;;;33.47;36.20;98811.97;4160529;28;20282;-68
2022/06/19 09:29:30;;;;;;;10.35;5.07;;;;;;;34.22;35.95;98822.19;4160191;28;20236;-67
2022/06/19 09:31:42;;;;;;;10.90;5.00;;;;;;;33.88;35.80;98812.28;4160246;28;20221;-70
2022/06/19 09:33:58;;;;;;;10.95;4.63;;;;;;;34.03;35.21;98817.16;4159950;28;20236;-71
2022/06/19 09:36:13;;;;;;;11.43;5.13;;;;;;;33.32;36.38;98823.56;4159398;28;20863;-70
2022/06/19 09:38:26;;;;;;;8.77;4.47;;;;;;;33.56;36.53;98805.56;4160882;28;20659;-71
2022/06/19 09:40:39;;;;;;;12.63;4.90;;;;;;;34.01;35.35;98813.13;4160335;28;20775;-70
2022/06/19 09:42:55;;;;;;;14.20;4.97;;;;;;;34.48;35.42;98815.56;4151480;28;20239;-70
2022/06/19 09:45:08;;;;;;;12.07;5.30;;;;;;;34.34;35.47;98826.94;4160118;28;20701;-70
2022/06/19 09:47:16;;;;;;;9.70;5.57;;;;;;;34.61;35.12;98831.03;4160287;28;20515;-70
2022/06/19 09:49:44;;;;;;;17.05;5.00;;;;;;;34.10;34.73;98841.47;4159688;28;20259;-69
2022/06/19 09:51:56;;;;;;;6.93;4.03;;;;;;;34.48;34.02;98850.66;4160000;28;20244;-69